»·PEaware :: SKW1001 KSLC-KPRC

SKW1001 :: KSLC-KPRC

FLIGHT INFORMATION

Flight Status: Arrived
Operator:
SkyWest Airlines
More flights by this operator :: More flights under this callsign
Pilot: Anonymous 11975 (11975)
Aircraft: CANADAIR CL-600 CRJ-700
(CRJ7)
More flights by this aircraft type
Origin: KSLC Salt Lake City Intl
United States
Destination: KPRC Love
United States
More flights between these airports :: More routes between these airports
Route: ARCHZ1 MLF GCN DRK
File this flight plan on PilotEdge
Remarks:
Altitude:
(Current/Filed)
33,000ft
Speed:
(Current/Filed)
417kts
Departed: 11-Aug-22 02:07 PM
Arrived: 11-Aug-22 03:31 PM
Distance/Time
Traveled:
369nm/1:24
Distance/Time
To Go:
Arrived

Flight Plot

Page will automatically refresh every two minutes.

Flight plan parsing failed; only flown route is shown


Map Options




Map Legend


Flown Route
Filed Route
Departure Airport
Arrival Airport
Navaid (VOR, NDB)
Fix

Horizontal Profiles

Position Reports

Time Latitude Longitude Heading Altitude Ground
Speed
11-Aug-22 13:34 40.793031 -111.986061 83 4229ft 0kts
11-Aug-22 13:35 40.793031 -111.986061 83 4229ft 0kts
11-Aug-22 13:36 40.793031 -111.986061 83 4229ft 0kts
11-Aug-22 13:37 40.793031 -111.986061 83 4229ft 0kts
11-Aug-22 13:38 40.793031 -111.986061 83 4229ft 0kts
11-Aug-22 13:39 40.793031 -111.986061 83 4229ft 0kts
11-Aug-22 13:40 40.793031 -111.986061 83 4229ft 0kts
11-Aug-22 13:41 40.793031 -111.986061 83 4229ft 0kts
11-Aug-22 13:42 40.793031 -111.986061 83 4229ft 0kts
11-Aug-22 13:43 40.793031 -111.986061 83 4229ft 0kts
11-Aug-22 13:44 40.793031 -111.986061 83 4229ft 0kts
11-Aug-22 13:45 40.793031 -111.986061 83 4229ft 0kts
11-Aug-22 13:46 40.793031 -111.986061 83 4229ft 0kts
11-Aug-22 13:47 40.793031 -111.986061 83 4229ft 0kts
11-Aug-22 13:48 40.793031 -111.986061 83 4229ft 0kts
11-Aug-22 13:49 40.793031 -111.986061 83 4229ft 0kts
11-Aug-22 13:50 40.792850 -111.986242 174 4229ft 0kts
11-Aug-22 13:51 40.792850 -111.986242 174 4229ft 0kts
11-Aug-22 13:52 40.792850 -111.986242 174 4229ft 0kts
11-Aug-22 13:53 40.792850 -111.986242 174 4229ft 0kts
11-Aug-22 13:54 40.792850 -111.986242 174 4229ft 0kts
11-Aug-22 13:55 40.792850 -111.986242 174 4229ft 0kts
11-Aug-22 13:56 40.792850 -111.986242 174 4229ft 0kts
11-Aug-22 13:57 40.792850 -111.986242 174 4229ft 0kts
11-Aug-22 13:58 40.792765 -111.986231 174 4229ft 2kts
11-Aug-22 13:59 40.792510 -111.982351 85 4231ft 23kts
11-Aug-22 14:00 40.791535 -111.977266 174 4233ft 13kts
11-Aug-22 14:01 40.787275 -111.976781 175 4236ft 19kts
11-Aug-22 14:02 40.781425 -111.976090 174 4228ft 21kts
11-Aug-22 14:03 40.776684 -111.975047 174 4170ft 13kts
11-Aug-22 14:04 40.774684 -111.974759 147 4171ft 0kts
11-Aug-22 14:05 40.774665 -111.973780 56 4167ft 10kts
11-Aug-22 14:06 40.791084 -111.975060 353 4275ft 163kts
11-Aug-22 14:07 40.841586 -111.982472 354 6831ft 206kts
11-Aug-22 14:08 40.877688 -112.040972 273 8835ft 264kts
11-Aug-22 14:09 40.854067 -112.130404 230 11825ft 270kts
11-Aug-22 14:10 40.802318 -112.204661 224 14690ft 279kts
11-Aug-22 14:11 40.744442 -112.274165 195 17186ft 287kts
11-Aug-22 14:12 40.659983 -112.292932 187 18400ft 347kts
11-Aug-22 14:13 40.558628 -112.313008 191 20513ft 382kts
11-Aug-22 14:14 40.454001 -112.356558 197 22905ft 404kts
11-Aug-22 14:15 40.345772 -112.400994 196 25236ft 413kts
11-Aug-22 14:16 40.234011 -112.446630 196 26859ft 433kts
11-Aug-22 14:17 40.123341 -112.506577 209 28738ft 438kts
11-Aug-22 14:18 40.015775 -112.585267 207 30202ft 448kts
11-Aug-22 14:19 39.904904 -112.662127 207 31342ft 454kts
11-Aug-22 14:20 39.792835 -112.740474 207 32398ft 457kts
11-Aug-22 14:21 39.678065 -112.811086 195 33047ft 459kts
11-Aug-22 14:22 39.552683 -112.839903 185 33099ft 459kts
11-Aug-22 14:23 39.426126 -112.856608 186 33102ft 459kts
11-Aug-22 14:24 39.299187 -112.875738 186 33051ft 459kts
11-Aug-22 14:25 39.172092 -112.894697 186 33050ft 459kts
11-Aug-22 14:26 39.045089 -112.913252 186 33053ft 459kts
11-Aug-22 14:27 38.917891 -112.931950 186 33062ft 460kts
11-Aug-22 14:28 38.790476 -112.950515 186 33058ft 461kts
11-Aug-22 14:29 38.662928 -112.969218 186 33123ft 461kts
11-Aug-22 14:30 38.535225 -112.987699 186 33206ft 462kts
11-Aug-22 14:31 38.407499 -113.006088 184 33219ft 462kts
11-Aug-22 14:32 38.280240 -112.985746 165 33198ft 463kts
11-Aug-22 14:33 38.157266 -112.937195 164 33112ft 464kts
11-Aug-22 14:34 38.033101 -112.891591 164 33082ft 465kts
11-Aug-22 14:35 37.908737 -112.845497 164 33164ft 466kts
11-Aug-22 14:36 37.784022 -112.799718 164 33191ft 467kts
11-Aug-22 14:37 37.659229 -112.753832 164 33189ft 467kts
11-Aug-22 14:38 37.534381 -112.708306 164 33126ft 467kts
11-Aug-22 14:39 37.409883 -112.662884 164 33126ft 467kts
11-Aug-22 14:40 37.284882 -112.617471 164 33120ft 468kts
11-Aug-22 14:41 37.159702 -112.572223 164 33233ft 468kts
11-Aug-22 14:42 37.034334 -112.526912 164 33288ft 469kts
11-Aug-22 14:43 36.908795 -112.481953 163 33075ft 469kts
11-Aug-22 14:44 36.783167 -112.436938 164 33101ft 470kts
11-Aug-22 14:45 36.657696 -112.392345 164 33124ft 471kts
11-Aug-22 14:46 36.531526 -112.347482 163 33119ft 471kts
11-Aug-22 14:47 36.405189 -112.302660 163 33131ft 472kts
11-Aug-22 14:48 36.278569 -112.258017 163 33170ft 473kts
11-Aug-22 14:49 36.152110 -112.213588 163 33268ft 473kts
11-Aug-22 14:50 36.026507 -112.169602 164 31481ft 464kts
11-Aug-22 14:51 35.897445 -112.161297 187 29616ft 472kts
11-Aug-22 14:52 35.770202 -112.197665 192 27391ft 467kts
11-Aug-22 14:53 35.642959 -112.231836 191 25575ft 470kts
11-Aug-22 14:54 35.515956 -112.265146 191 24439ft 465kts
11-Aug-22 14:55 35.390387 -112.298565 191 23625ft 460kts
11-Aug-22 14:56 35.268635 -112.330830 191 20712ft 439kts
11-Aug-22 14:57 35.152054 -112.361912 191 17749ft 426kts
11-Aug-22 14:58 35.038181 -112.392325 191 14828ft 402kts
11-Aug-22 14:59 34.930725 -112.420552 191 12071ft 386kts
11-Aug-22 15:00 34.837160 -112.444956 191 10967ft 309kts
11-Aug-22 15:01 34.770279 -112.496126 228 10117ft 288kts
11-Aug-22 15:02 34.720414 -112.571500 231 9838ft 297kts
11-Aug-22 15:03 34.661714 -112.641447 220 9844ft 291kts
11-Aug-22 15:04 34.600662 -112.705561 220 9818ft 290kts
11-Aug-22 15:05 34.538913 -112.769869 220 9802ft 297kts
11-Aug-22 15:06 34.473714 -112.804378 154 9790ft 254kts
11-Aug-22 15:07 34.451083 -112.725809 95 9937ft 264kts
11-Aug-22 15:08 34.459675 -112.644084 44 9962ft 230kts
11-Aug-22 15:09 34.499718 -112.584930 47 8207ft 216kts
11-Aug-22 15:10 34.536465 -112.544049 38 7878ft 168kts
11-Aug-22 15:11 34.571389 -112.507791 41 7170ft 164kts
11-Aug-22 15:12 34.604879 -112.472054 40 6611ft 157kts
11-Aug-22 15:13 34.637285 -112.437580 40 5694ft 147kts
11-Aug-22 15:14 34.676117 -112.398599 42 7860ft 218kts
11-Aug-22 15:15 34.725375 -112.343926 42 9048ft 242kts
11-Aug-22 15:16 34.781713 -112.347888 291 9419ft 301kts
11-Aug-22 15:17 34.748489 -112.430713 221 9528ft 295kts
11-Aug-22 15:18 34.687207 -112.496063 220 9495ft 285kts
11-Aug-22 15:19 34.628496 -112.557647 219 9322ft 277kts
11-Aug-22 15:20 34.567732 -112.621160 220 9328ft 294kts
11-Aug-22 15:21 34.505516 -112.685998 220 9330ft 295kts
11-Aug-22 15:22 34.447806 -112.741298 190 9279ft 241kts
11-Aug-22 15:23 34.427707 -112.689767 63 9362ft 223kts
11-Aug-22 15:24 34.454480 -112.623355 50 9103ft 216kts
11-Aug-22 15:25 34.500157 -112.580047 36 8018ft 189kts
11-Aug-22 15:26 34.535948 -112.546198 39 7819ft 154kts
11-Aug-22 15:27 34.568502 -112.512543 39 7088ft 155kts
11-Aug-22 15:28 34.599951 -112.476939 44 6487ft 153kts
11-Aug-22 15:29 34.631866 -112.443403 41 5541ft 153kts
11-Aug-22 15:30 34.658460 -112.415299 40 4988ft 35kts
11-Aug-22 15:31 34.661636 -112.413331 221 4965ft 0kts
11-Aug-22 15:32 34.660198 -112.414859 221 4976ft 18kts
11-Aug-22 15:33 34.655386 -112.419976 221 5000ft 28kts
11-Aug-22 15:34 34.649697 -112.426348 268 5023ft 11kts
11-Aug-22 15:35 34.649693 -112.426589 268 5023ft 0kts
11-Aug-22 15:36 34.649693 -112.426589 268 5023ft 0kts

Navigation Log

Ident Type
Flight plan parsing failed, navigation log unavailable